createdAt,value
2017-08-28T00:00:13.148Z,71.84
2017-08-28T00:01:13.082Z,72.52
2017-08-28T00:02:13.072Z,72.22
2017-08-28T00:03:12.934Z,72.52
2017-08-28T00:04:13.084Z,72.42
2017-08-28T00:05:12.995Z,72.32
2017-08-28T00:06:12.976Z,72.38
2017-08-28T00:07:13.061Z,72.48
2017-08-28T00:08:12.910Z,72.22
2017-08-28T00:09:12.963Z,72.22
2017-08-28T00:10:12.895Z,72.67
2017-08-28T00:11:12.997Z,72.58
2017-08-28T00:12:13.061Z,72.96
2017-08-28T00:13:12.991Z,72.67
2017-08-28T00:14:12.963Z,73.06
2017-08-28T00:15:12.848Z,73.06
2017-08-28T00:16:12.974Z,72.86
2017-08-28T00:17:12.940Z,72.86
2017-08-28T00:18:12.978Z,72.96
2017-08-28T00:19:12.815Z,72.77
2017-08-28T00:20:12.743Z,72.77
2017-08-28T00:21:12.822Z,73.63
2017-08-28T00:22:12.690Z,73.44
2017-08-28T00:23:12.780Z,73.35
2017-08-28T00:24:12.869Z,73.25
2017-08-28T00:25:12.950Z,73.35
2017-08-28T00:26:12.677Z,73.06
2017-08-28T00:27:12.696Z,73.44
2017-08-28T00:28:12.805Z,73.54
2017-08-28T00:29:12.780Z,73.54
2017-08-28T00:30:12.725Z,73.35
2017-08-28T00:31:12.709Z,73.35
2017-08-28T00:32:12.763Z,73.44
2017-08-28T00:33:12.728Z,73.35
2017-08-28T00:34:12.639Z,73.25
2017-08-28T00:35:12.678Z,73.63
2017-08-28T00:36:12.591Z,73.73
2017-08-28T00:37:12.766Z,74.21
2017-08-28T00:38:12.655Z,73.83
2017-08-28T00:39:12.671Z,74.12
2017-08-28T00:40:12.622Z,74.02
2017-08-28T00:41:12.680Z,74.31
2017-08-28T00:42:12.645Z,74.12
2017-08-28T00:43:12.661Z,74.21
2017-08-28T00:44:12.575Z,74.12
2017-08-28T00:45:12.632Z,74.31
2017-08-28T00:46:12.603Z,74.31
2017-08-28T00:47:12.457Z,74.21
2017-08-28T00:48:12.563Z,74.12
2017-08-28T00:49:12.534Z,74.02
2017-08-28T00:50:12.442Z,74.99
2017-08-28T00:51:12.467Z,74.99
2017-08-28T00:52:12.529Z,74.60
2017-08-28T00:53:12.669Z,74.69
2017-08-28T00:54:12.626Z,75.09
2017-08-28T00:55:12.433Z,75.09
2017-08-28T00:56:12.563Z,74.99
2017-08-28T00:57:12.543Z,75.27
2017-08-28T00:58:12.348Z,74.89
2017-08-28T00:59:12.351Z,74.79
2017-08-28T01:00:12.620Z,75.43
2017-08-28T01:01:12.521Z,75.05
2017-08-28T01:02:12.341Z,75.24
2017-08-28T01:03:12.333Z,75.34
2017-08-28T01:04:12.413Z,75.72
2017-08-28T01:05:12.313Z,75.57
2017-08-28T01:06:12.432Z,75.62
2017-08-28T01:07:12.344Z,75.72
2017-08-28T01:08:12.368Z,75.95
2017-08-28T01:09:12.384Z,75.43
2017-08-28T01:10:12.367Z,75.67
2017-08-28T01:11:12.433Z,75.43
2017-08-28T01:12:12.339Z,75.72
2017-08-28T01:13:12.288Z,75.82
2017-08-28T01:14:12.332Z,75.62
2017-08-28T01:15:12.329Z,75.92
2017-08-28T01:16:12.303Z,75.62
2017-08-28T01:17:12.258Z,75.72
2017-08-28T01:18:12.284Z,75.57
2017-08-28T01:19:12.303Z,75.53
2017-08-28T01:20:12.303Z,75.82
2017-08-28T01:21:12.329Z,75.43
2017-08-28T01:22:12.167Z,75.72
2017-08-28T01:23:12.189Z,75.43
2017-08-28T01:24:12.226Z,75.53
2017-08-28T01:25:12.233Z,75.82
2017-08-28T01:26:12.201Z,75.53
2017-08-28T01:27:12.132Z,76.10
2017-08-28T01:28:12.220Z,75.92
2017-08-28T01:29:12.103Z,76.01
2017-08-28T01:30:12.005Z,76.10
2017-08-28T01:31:12.136Z,75.92
2017-08-28T01:32:12.139Z,76.30
2017-08-28T01:33:12.088Z,76.20
2017-08-28T01:34:12.155Z,76.20
2017-08-28T01:35:11.950Z,75.82
2017-08-28T01:36:11.966Z,76.10
2017-08-28T01:37:11.978Z,76.20
2017-08-28T01:38:12.039Z,75.92
2017-08-28T01:39:12.011Z,76.20
2017-08-28T01:40:12.014Z,75.53
2017-08-28T01:41:11.918Z,76.01
2017-08-28T01:42:11.950Z,75.53
2017-08-28T01:43:12.036Z,76.40
2017-08-28T01:44:11.985Z,76.20
2017-08-28T01:45:12.014Z,75.82
2017-08-28T01:46:11.962Z,75.82
2017-08-28T01:47:11.908Z,75.72
2017-08-28T01:48:11.902Z,75.34
2017-08-28T01:49:11.944Z,75.62
2017-08-28T01:50:11.851Z,75.72
2017-08-28T01:51:11.842Z,75.53
2017-08-28T01:52:11.870Z,75.82
2017-08-28T01:53:11.911Z,76.30
2017-08-28T01:54:11.793Z,76.59
2017-08-28T01:55:11.822Z,76.01
2017-08-28T01:56:11.784Z,75.92
2017-08-28T01:57:11.825Z,76.10
2017-08-28T01:58:11.761Z,76.01
2017-08-28T01:59:11.844Z,76.10
2017-08-28T02:00:11.806Z,76.26
2017-08-28T02:01:11.687Z,76.30
2017-08-28T02:02:11.744Z,76.20
2017-08-28T02:03:11.754Z,76.30
2017-08-28T02:04:11.831Z,76.20
2017-08-28T02:05:11.850Z,76.17
2017-08-28T02:06:11.571Z,76.36
2017-08-28T02:07:11.561Z,76.75
2017-08-28T02:08:11.616Z,76.84
2017-08-28T02:09:11.812Z,76.65
2017-08-28T02:10:11.680Z,77.07
2017-08-28T02:11:11.812Z,76.65
2017-08-28T02:12:11.719Z,76.65
2017-08-28T02:13:11.580Z,76.36
2017-08-28T02:14:11.651Z,76.55
2017-08-28T02:15:11.582Z,76.65
2017-08-28T02:16:11.599Z,76.84
2017-08-28T02:17:11.589Z,76.40
2017-08-28T02:18:11.557Z,76.45
2017-08-28T02:19:11.588Z,76.26
2017-08-28T02:20:11.639Z,76.26
2017-08-28T02:21:11.601Z,77.13
2017-08-28T02:22:11.693Z,76.93
2017-08-28T02:23:11.504Z,77.03
2017-08-28T02:24:11.526Z,77.23
2017-08-28T02:25:11.507Z,77.51
2017-08-28T02:26:11.636Z,77.13
2017-08-28T02:27:11.382Z,77.33
2017-08-28T02:28:11.558Z,77.13
2017-08-28T02:29:11.481Z,77.13
2017-08-28T02:30:11.393Z,76.93
2017-08-28T02:31:11.378Z,76.93
2017-08-28T02:32:11.386Z,77.23
2017-08-28T02:33:11.374Z,77.51
2017-08-28T02:34:11.293Z,77.23
2017-08-28T02:35:11.346Z,77.42
2017-08-28T02:36:11.408Z,77.33
2017-08-28T02:37:11.439Z,76.84
2017-08-28T02:38:11.459Z,77.03
2017-08-28T02:39:11.297Z,76.36
2017-08-28T02:40:11.420Z,76.36
2017-08-28T02:41:11.342Z,76.45
2017-08-28T02:42:11.285Z,76.45
2017-08-28T02:43:11.304Z,76.55
2017-08-28T02:44:11.399Z,76.75
2017-08-28T02:45:11.316Z,77.03
2017-08-28T02:46:11.266Z,77.42
2017-08-28T02:47:11.214Z,77.23
2017-08-28T02:48:11.233Z,77.51
2017-08-28T02:49:11.211Z,77.33
2017-08-28T02:50:11.331Z,77.13
2017-08-28T02:51:11.349Z,77.33
2017-08-28T02:52:11.234Z,77.51
2017-08-28T02:53:11.214Z,77.81
2017-08-28T02:54:11.282Z,77.33
2017-08-28T02:55:11.238Z,77.33
2017-08-28T02:56:11.157Z,77.33
2017-08-28T02:57:11.154Z,77.86
2017-08-28T02:58:11.339Z,77.23
2017-08-28T02:59:11.071Z,77.42
2017-08-28T03:00:11.208Z,77.33
2017-08-28T03:01:11.151Z,77.42
2017-08-28T03:02:11.090Z,77.23
2017-08-28T03:03:11.106Z,77.38
2017-08-28T03:04:11.022Z,77.51
2017-08-28T03:05:11.007Z,77.51
2017-08-28T03:06:11.014Z,76.93
2017-08-28T03:07:11.090Z,76.75
2017-08-28T03:08:11.059Z,76.84
2017-08-28T03:09:11.007Z,76.90
2017-08-28T03:10:11.112Z,76.75
2017-08-28T03:11:11.040Z,77.00
2017-08-28T03:12:10.927Z,77.61
2017-08-28T03:13:10.937Z,77.19
2017-08-28T03:14:10.979Z,77.09
2017-08-28T03:15:10.981Z,77.00
2017-08-28T03:16:10.969Z,76.90
2017-08-28T03:17:10.854Z,77.03
2017-08-28T03:18:10.975Z,77.09
2017-08-28T03:19:10.850Z,77.13
2017-08-28T03:20:10.936Z,77.09
2017-08-28T03:21:10.844Z,77.38
2017-08-28T03:22:10.821Z,77.67
2017-08-28T03:23:10.807Z,77.28
2017-08-28T03:24:10.915Z,77.48
2017-08-28T03:25:10.821Z,77.28
2017-08-28T03:26:10.882Z,77.19
2017-08-28T03:27:10.783Z,77.19
2017-08-28T03:28:10.838Z,77.19
2017-08-28T03:29:10.796Z,77.00
2017-08-28T03:30:10.838Z,77.00
2017-08-28T03:31:10.815Z,77.09
2017-08-28T03:32:10.873Z,77.19
2017-08-28T03:33:10.765Z,77.28
2017-08-28T03:34:10.790Z,77.28
2017-08-28T03:35:10.696Z,77.38
2017-08-28T03:36:10.704Z,77.48
2017-08-28T03:37:10.659Z,77.48
2017-08-28T03:38:10.704Z,77.19
2017-08-28T03:39:10.679Z,77.19
2017-08-28T03:40:10.774Z,77.00
2017-08-28T03:41:10.627Z,76.80
2017-08-28T03:42:10.617Z,76.90
2017-08-28T03:43:10.685Z,76.90
2017-08-28T03:44:10.710Z,76.71
2017-08-28T03:45:10.614Z,76.90
2017-08-28T03:46:10.646Z,76.80
2017-08-28T03:47:10.630Z,77.00
2017-08-28T03:48:10.621Z,76.51
2017-08-28T03:49:10.541Z,77.19
2017-08-28T03:50:10.516Z,76.90
2017-08-28T03:51:10.516Z,77.19
2017-08-28T03:52:10.516Z,77.38
2017-08-28T03:53:10.621Z,76.80
2017-08-28T03:54:10.713Z,76.71
2017-08-28T03:55:10.483Z,77.00
2017-08-28T03:56:10.516Z,76.71
2017-08-28T03:57:10.557Z,76.80
2017-08-28T03:58:10.471Z,76.96
2017-08-28T03:59:10.426Z,76.80
2017-08-28T04:00:10.471Z,77.09
2017-08-28T04:01:10.345Z,77.28
2017-08-28T04:02:10.410Z,77.67
2017-08-28T04:03:10.364Z,77.44
2017-08-28T04:04:10.342Z,77.63
2017-08-28T04:05:10.480Z,77.48
2017-08-28T04:06:10.414Z,77.15
2017-08-28T04:07:10.468Z,77.53
2017-08-28T04:08:10.382Z,77.53
2017-08-28T04:09:10.358Z,77.73
2017-08-28T04:10:10.332Z,77.44
2017-08-28T04:11:10.313Z,77.25
2017-08-28T04:12:10.310Z,77.25
2017-08-28T04:13:10.506Z,76.96
2017-08-28T04:14:10.445Z,77.34
2017-08-28T04:15:10.297Z,77.25
2017-08-28T04:16:10.198Z,77.44
2017-08-28T04:17:10.265Z,76.96
2017-08-28T04:18:10.173Z,77.15
2017-08-28T04:19:10.191Z,77.25
2017-08-28T04:20:10.158Z,77.25
2017-08-28T04:21:10.184Z,77.15
2017-08-28T04:22:10.164Z,77.25
2017-08-28T04:23:10.297Z,77.53
2017-08-28T04:24:10.163Z,77.06
2017-08-28T04:25:10.144Z,77.06
2017-08-28T04:26:10.128Z,77.25
2017-08-28T04:27:10.185Z,76.96
2017-08-28T04:28:10.074Z,77.44
2017-08-28T04:29:10.204Z,77.25
2017-08-28T04:30:10.061Z,77.34
2017-08-28T04:31:10.093Z,77.06
2017-08-28T04:32:10.118Z,77.34
2017-08-28T04:33:10.110Z,76.96
2017-08-28T04:34:10.054Z,76.96
2017-08-28T04:35:10.106Z,77.06
2017-08-28T04:36:10.168Z,76.67
2017-08-28T04:37:09.974Z,76.67
2017-08-28T04:38:10.027Z,77.15
2017-08-28T04:39:09.977Z,77.34
2017-08-28T04:40:10.004Z,77.06
2017-08-28T04:41:09.925Z,76.76
2017-08-28T04:42:10.000Z,77.15
2017-08-28T04:43:09.964Z,76.96
2017-08-28T04:44:09.959Z,77.25
2017-08-28T04:45:09.929Z,76.86
2017-08-28T04:46:09.849Z,76.96
2017-08-28T04:47:09.863Z,77.73
2017-08-28T04:48:09.884Z,78.21
2017-08-28T04:49:09.903Z,77.63
2017-08-28T04:50:09.875Z,77.83
2017-08-28T04:51:09.919Z,77.63
2017-08-28T04:52:09.890Z,77.73
2017-08-28T04:53:09.994Z,77.92
2017-08-28T04:54:09.830Z,78.40
2017-08-28T04:55:09.839Z,78.21
2017-08-28T04:56:10.035Z,78.21
2017-08-28T04:57:09.948Z,78.59
2017-08-28T04:58:09.732Z,77.92
2017-08-28T04:59:09.862Z,77.73
2017-08-28T05:00:09.808Z,77.53
2017-08-28T05:01:09.788Z,77.53
2017-08-28T05:02:09.704Z,77.63
2017-08-28T05:03:09.788Z,77.73
2017-08-28T05:04:09.659Z,77.83
2017-08-28T05:05:09.788Z,77.92
2017-08-28T05:06:09.592Z,77.63
2017-08-28T05:07:09.620Z,77.53
2017-08-28T05:08:09.559Z,78.11
2017-08-28T05:09:09.611Z,77.63
2017-08-28T05:10:09.673Z,78.21
2017-08-28T05:11:10.644Z,78.50
2017-08-28T05:12:21.521Z,78.50
2017-08-28T05:13:21.499Z,77.83
2017-08-28T05:14:11.697Z,78.59
2017-08-28T05:15:11.728Z,77.73
2017-08-28T05:16:11.652Z,78.02
2017-08-28T05:17:11.960Z,78.02
2017-08-28T05:18:11.494Z,78.11
2017-08-28T05:19:12.750Z,78.21
2017-08-28T05:20:12.440Z,78.98
2017-08-28T05:21:13.008Z,78.79
2017-08-28T05:22:11.568Z,78.79
2017-08-28T05:23:11.456Z,78.50
2017-08-28T05:24:11.917Z,78.40
2017-08-28T05:25:11.716Z,78.50
2017-08-28T05:26:10.496Z,78.40
2017-08-28T05:27:09.368Z,77.73
2017-08-28T05:28:09.367Z,77.73
2017-08-28T05:29:09.403Z,78.21
2017-08-28T05:30:09.399Z,78.31
2017-08-28T05:31:09.322Z,78.11
2017-08-28T05:32:09.258Z,78.21
2017-08-28T05:33:09.268Z,78.50
2017-08-28T05:34:09.233Z,78.88
2017-08-28T05:40:34.019Z,79.08
2017-08-28T05:41:33.939Z,78.79
2017-08-28T05:42:33.207Z,78.50
2017-08-28T05:43:34.004Z,78.69
2017-08-28T05:44:31.665Z,79.27
2017-08-28T05:45:33.958Z,79.75
2017-08-28T05:46:31.747Z,79.66
2017-08-28T05:47:31.095Z,79.56
2017-08-28T05:48:31.009Z,79.75
2017-08-28T05:49:31.118Z,78.98
2017-08-28T05:50:31.105Z,78.59
2017-08-28T05:51:31.135Z,78.88
2017-08-28T05:52:30.990Z,78.88
2017-08-28T05:53:31.051Z,78.88
2017-08-28T05:54:31.102Z,78.59
2017-08-28T05:55:31.066Z,79.46
2017-08-28T05:56:31.188Z,78.79
2017-08-28T05:57:30.980Z,79.17
2017-08-28T05:58:31.009Z,78.59
2017-08-28T05:59:31.185Z,79.08
2017-08-28T06:00:30.942Z,78.88
2017-08-28T06:01:31.195Z,78.79
2017-08-28T06:02:31.066Z,79.75
2017-08-28T06:03:31.107Z,79.36
2017-08-28T06:04:31.063Z,79.46
2017-08-28T06:05:31.049Z,79.94
2017-08-28T06:06:30.855Z,79.66
2017-08-28T06:07:30.868Z,79.66
2017-08-28T06:08:30.771Z,79.08
2017-08-28T06:09:30.956Z,78.88
2017-08-28T06:10:30.756Z,79.46
2017-08-28T06:11:30.811Z,79.66
2017-08-28T06:12:30.765Z,78.79
2017-08-28T06:13:30.852Z,78.98
2017-08-28T06:14:30.785Z,78.88
2017-08-28T06:15:30.798Z,78.88
2017-08-28T06:16:30.820Z,78.88
2017-08-28T06:17:30.801Z,78.79
2017-08-28T06:18:30.846Z,78.21
2017-08-28T06:19:30.747Z,78.50
2017-08-28T06:20:30.692Z,78.79
2017-08-28T06:21:30.704Z,79.69
2017-08-28T06:22:30.747Z,79.27
2017-08-28T06:23:30.648Z,78.88
2017-08-28T06:24:30.693Z,78.88
2017-08-28T06:25:30.772Z,79.27
2017-08-28T06:26:30.569Z,79.02
2017-08-28T06:27:30.597Z,79.02
2017-08-28T06:28:30.673Z,78.83
2017-08-28T06:29:30.673Z,78.73
2017-08-28T06:30:30.683Z,78.83
2017-08-28T06:31:30.679Z,78.83
2017-08-28T06:32:30.554Z,78.83
2017-08-28T06:33:30.600Z,78.92
2017-08-28T06:34:31.923Z,78.25
2017-08-28T06:35:32.514Z,78.25
2017-08-28T06:36:32.134Z,78.92
2017-08-28T06:37:33.339Z,79.31
2017-08-28T06:41:33.044Z,78.44
2017-08-28T06:42:13.501Z,78.54
2017-08-28T06:43:12.377Z,77.86
2017-08-28T06:44:10.978Z,78.15
2017-08-28T06:45:11.802Z,78.06
2017-08-28T06:46:10.967Z,78.54
2017-08-28T06:47:11.768Z,78.06
2017-08-28T06:48:09.368Z,79.11
2017-08-28T06:49:11.659Z,78.83
2017-08-28T06:50:09.099Z,78.25
2017-08-28T06:51:08.797Z,79.11
2017-08-28T06:52:20.622Z,78.25
2017-08-28T06:53:13.654Z,79.11
2017-08-28T06:56:34.223Z,79.69
2017-08-28T06:57:34.159Z,79.31
2017-08-28T06:59:56.934Z,78.25
2017-08-28T07:00:57.096Z,78.25
2017-08-28T07:03:20.872Z,79.64
2017-08-28T07:04:20.895Z,78.92
2017-08-28T07:07:48.662Z,78.96
2017-08-28T07:08:49.042Z,78.48
2017-08-28T07:09:49.330Z,78.29
2017-08-28T07:10:49.279Z,78.86
2017-08-28T07:11:49.392Z,78.86
2017-08-28T07:12:49.238Z,78.00
2017-08-28T07:13:49.363Z,79.06
2017-08-28T07:14:49.053Z,78.67
2017-08-28T07:15:49.202Z,78.86
2017-08-28T07:16:49.146Z,77.71
2017-08-28T07:17:49.247Z,77.81
2017-08-28T07:18:49.234Z,78.19
2017-08-28T07:19:46.753Z,77.71
2017-08-28T07:20:46.468Z,78.29
2017-08-28T07:21:46.524Z,78.58
2017-08-28T07:22:46.506Z,78.42
2017-08-28T07:23:46.397Z,77.81
2017-08-28T07:24:47.069Z,77.75
2017-08-28T07:25:46.480Z,78.09
2017-08-28T07:26:46.461Z,78.19
2017-08-28T07:27:47.034Z,77.46
2017-08-28T07:28:46.371Z,76.68
2017-08-28T07:29:46.468Z,77.36
2017-08-28T07:30:46.398Z,77.46
2017-08-28T07:31:46.358Z,77.94
2017-08-28T07:32:46.416Z,78.61
2017-08-28T07:33:46.336Z,77.26
2017-08-28T07:34:46.361Z,77.84
2017-08-28T07:35:46.252Z,79.29
2017-08-28T07:36:46.381Z,79.00
2017-08-28T07:37:46.378Z,77.36
2017-08-28T07:38:46.242Z,77.75
2017-08-28T07:39:46.300Z,77.55
2017-08-28T07:40:47.755Z,78.03
2017-08-28T07:41:46.544Z,77.84
2017-08-28T07:42:46.217Z,78.27
2017-08-28T07:43:46.233Z,78.03
2017-08-28T07:44:46.281Z,78.27
2017-08-28T07:45:46.111Z,77.30
2017-08-28T07:46:46.309Z,77.01
2017-08-28T07:47:46.220Z,77.59
2017-08-28T07:48:46.114Z,77.50
2017-08-28T07:49:46.139Z,77.78
2017-08-28T07:50:46.101Z,77.59
2017-08-28T07:51:46.184Z,77.50
2017-08-28T07:52:46.101Z,77.59
2017-08-28T07:53:46.082Z,77.69
2017-08-28T07:54:46.127Z,77.59
2017-08-28T07:55:46.072Z,77.50
2017-08-28T07:56:46.152Z,77.40
2017-08-28T07:57:46.085Z,77.40
2017-08-28T07:58:45.986Z,75.95
2017-08-28T07:59:46.028Z,76.72
2017-08-28T08:00:46.082Z,77.50
2017-08-28T08:01:46.060Z,77.40
2017-08-28T08:02:46.162Z,77.25
2017-08-28T08:03:45.960Z,76.72
2017-08-28T08:04:46.050Z,77.53
2017-08-28T08:05:45.969Z,78.02
2017-08-28T08:06:46.018Z,77.92
2017-08-28T08:07:45.948Z,77.92
2017-08-28T08:08:45.880Z,76.86
2017-08-28T08:09:45.909Z,76.95
2017-08-28T08:10:45.862Z,76.18
2017-08-28T08:11:45.870Z,75.51
2017-08-28T08:12:45.906Z,75.60
2017-08-28T08:13:45.794Z,76.03
2017-08-28T08:14:45.773Z,76.90
2017-08-28T08:15:45.794Z,76.03
2017-08-28T08:16:45.916Z,74.77
2017-08-28T08:17:45.832Z,75.54
2017-08-28T08:18:45.802Z,76.42
2017-08-28T08:19:45.854Z,77.00
2017-08-28T08:20:45.787Z,77.67
2017-08-28T08:21:45.925Z,75.84
2017-08-28T08:22:45.810Z,75.64
2017-08-28T08:23:45.705Z,75.45
2017-08-28T08:24:45.767Z,76.51
2017-08-28T08:25:45.729Z,77.00
2017-08-28T08:26:45.739Z,76.51
2017-08-28T08:27:45.754Z,76.12
2017-08-28T08:28:45.797Z,75.78
2017-08-28T08:29:45.668Z,74.23
2017-08-28T08:30:45.706Z,74.71
2017-08-28T08:31:45.723Z,74.23
2017-08-28T08:32:45.797Z,74.71
2017-08-28T08:33:45.731Z,74.90
2017-08-28T08:34:45.620Z,75.68
2017-08-28T08:35:45.667Z,75.48
2017-08-28T08:36:45.553Z,75.04
2017-08-28T08:37:45.788Z,73.94
2017-08-28T08:38:45.684Z,73.07
2017-08-28T08:39:45.611Z,74.07
2017-08-28T08:40:46.692Z,74.27
2017-08-28T08:41:45.661Z,73.68
2017-08-28T08:42:46.381Z,73.68
2017-08-28T08:43:45.596Z,75.04
2017-08-28T08:44:45.810Z,74.46
2017-08-28T08:45:45.616Z,71.94
2017-08-28T08:46:45.780Z,72.04
2017-08-28T08:47:45.575Z,71.36
2017-08-28T08:48:45.638Z,72.52
2017-08-28T08:49:45.487Z,72.52
2017-08-28T08:50:45.754Z,72.81
2017-08-28T08:51:45.530Z,70.98
2017-08-28T08:52:45.410Z,72.85
2017-08-28T08:53:45.390Z,74.11
2017-08-28T08:54:45.415Z,72.75
2017-08-28T08:55:45.584Z,72.75
2017-08-28T08:56:45.469Z,71.11
2017-08-28T08:57:45.409Z,72.36
2017-08-28T08:58:45.441Z,72.95
2017-08-28T08:59:45.454Z,72.66
2017-08-28T09:00:45.474Z,71.78
2017-08-28T09:01:45.466Z,70.82
2017-08-28T09:02:45.427Z,71.11
2017-08-28T09:03:45.403Z,69.85
2017-08-28T09:04:45.330Z,71.62
2017-08-28T09:05:45.403Z,71.01
2017-08-28T09:06:45.374Z,69.66
2017-08-28T09:07:45.295Z,71.04
2017-08-28T09:08:45.332Z,70.18
2017-08-28T09:09:45.249Z,69.11
2017-08-28T09:10:45.318Z,70.37
2017-08-28T09:11:45.297Z,71.14
2017-08-28T09:12:45.287Z,70.47
2017-08-28T09:13:45.268Z,70.47
2017-08-28T09:14:45.291Z,71.04
2017-08-28T09:15:45.287Z,69.89
2017-08-28T09:16:45.345Z,70.66
2017-08-28T09:17:45.256Z,70.27
2017-08-28T09:18:45.205Z,67.98
2017-08-28T09:19:45.281Z,70.01
2017-08-28T09:20:45.164Z,68.56
2017-08-28T09:21:45.275Z,69.05
2017-08-28T09:22:45.173Z,67.30
2017-08-28T09:23:45.227Z,67.02
2017-08-28T09:24:45.083Z,67.79
2017-08-28T09:25:45.252Z,67.30
2017-08-28T09:26:45.137Z,68.85
2017-08-28T09:27:45.106Z,70.70
2017-08-28T09:28:45.195Z,68.08
2017-08-28T09:29:45.169Z,66.24
2017-08-28T09:30:45.185Z,68.89
2017-08-28T09:31:45.105Z,68.89
2017-08-28T09:32:45.028Z,67.24
2017-08-28T09:33:45.209Z,67.14
2017-08-28T09:34:45.129Z,67.14
2017-08-28T09:35:45.151Z,66.85
2017-08-28T09:36:45.193Z,66.08
2017-08-28T09:37:45.061Z,67.14
2017-08-28T09:38:45.028Z,66.95
2017-08-28T09:39:45.049Z,67.66
2017-08-28T09:40:45.094Z,65.63
2017-08-28T09:41:44.973Z,67.85
2017-08-28T09:42:45.056Z,65.92
2017-08-28T09:43:45.063Z,67.57
2017-08-28T09:44:44.944Z,65.43
2017-08-28T09:45:44.950Z,65.53
2017-08-28T09:46:45.042Z,63.98
2017-08-28T09:47:44.919Z,66.89
2017-08-28T09:48:44.972Z,65.05
2017-08-28T09:49:44.806Z,66.72
2017-08-28T09:50:45.000Z,66.40
2017-08-28T09:51:45.015Z,66.82
2017-08-28T09:52:44.934Z,65.75
2017-08-28T09:53:44.908Z,65.17
2017-08-28T09:54:44.947Z,65.75
2017-08-28T09:55:44.918Z,66.24
2017-08-28T09:56:44.838Z,67.02
2017-08-28T09:57:44.787Z,67.02
2017-08-28T09:58:44.928Z,64.40
2017-08-28T09:59:44.826Z,66.44
2017-08-28T10:00:44.841Z,66.37
2017-08-28T10:01:44.819Z,65.59
2017-08-28T10:02:44.746Z,63.75
2017-08-28T10:03:44.841Z,61.91
2017-08-28T10:04:44.710Z,63.26
2017-08-28T10:05:44.720Z,60.45
2017-08-28T10:06:44.753Z,62.19
2017-08-28T10:07:44.910Z,62.98
2017-08-28T10:08:44.756Z,60.48
2017-08-28T10:09:44.788Z,60.68
2017-08-28T10:10:44.797Z,60.28
2017-08-28T10:11:44.708Z,62.32
2017-08-28T10:12:44.666Z,62.71
2017-08-28T10:13:44.644Z,63.88
2017-08-28T10:14:44.569Z,61.45
2017-08-28T10:15:44.637Z,62.07
2017-08-28T10:16:44.627Z,59.92
2017-08-28T10:17:44.753Z,62.26
2017-08-28T10:18:44.576Z,61.48
2017-08-28T10:19:44.608Z,59.64
2017-08-28T10:20:44.537Z,57.50
2017-08-28T10:21:44.614Z,59.92
2017-08-28T10:22:44.618Z,60.83
2017-08-28T10:23:44.537Z,60.25
2017-08-28T10:24:44.707Z,60.05
2017-08-28T10:25:44.643Z,58.40
2017-08-28T10:26:44.544Z,60.54
2017-08-28T10:27:44.573Z,59.89
2017-08-28T10:28:44.473Z,58.04
2017-08-28T10:29:44.514Z,58.92
2017-08-28T10:30:44.621Z,60.18
2017-08-28T10:31:44.559Z,55.03
2017-08-28T10:32:44.559Z,57.29
2017-08-28T10:33:44.498Z,58.17
2017-08-28T10:34:44.503Z,57.10
2017-08-28T10:35:44.448Z,57.20
2017-08-28T10:36:44.547Z,55.27
2017-08-28T10:37:44.435Z,54.99
2017-08-28T10:38:44.569Z,56.25
2017-08-28T10:39:44.571Z,52.65
2017-08-28T10:40:44.563Z,53.81
2017-08-28T10:41:44.553Z,51.29
2017-08-28T10:42:44.537Z,52.38
2017-08-28T10:43:44.399Z,54.82
2017-08-28T10:44:44.340Z,55.99
2017-08-28T10:45:44.434Z,52.02
2017-08-28T10:46:44.402Z,52.02
2017-08-28T10:47:44.495Z,50.75
2017-08-28T10:48:44.386Z,52.31
2017-08-28T10:49:44.390Z,51.92
2017-08-28T10:50:44.396Z,52.22
2017-08-28T10:51:44.308Z,51.26
2017-08-28T10:52:44.399Z,50.78
2017-08-28T10:53:44.434Z,50.38
2017-08-28T10:54:44.327Z,52.53
2017-08-28T10:55:44.406Z,47.78
2017-08-28T10:58:58.246Z,49.56
2017-08-28T10:59:58.550Z,47.51
2017-08-28T11:00:58.628Z,46.83
2017-08-28T11:01:57.938Z,48.80
2017-08-28T11:02:58.563Z,49.95
2017-08-28T11:03:58.553Z,46.46
2017-08-28T11:04:56.759Z,47.92
2017-08-28T11:05:56.250Z,45.19
2017-08-28T11:06:56.209Z,48.34
2017-08-28T11:07:56.175Z,48.44
2017-08-28T11:08:56.278Z,44.04
2017-08-28T11:09:56.182Z,45.90
2017-08-28T11:10:56.219Z,44.84
2017-08-28T11:11:56.137Z,46.31
2017-08-28T11:12:56.295Z,47.38
2017-08-28T11:13:56.124Z,46.60
2017-08-28T11:14:56.073Z,44.87
2017-08-28T11:15:56.103Z,45.84
2017-08-28T11:16:56.154Z,46.33
2017-08-28T11:17:56.146Z,44.77
2017-08-28T11:18:56.025Z,44.09
2017-08-28T11:19:56.082Z,42.64
2017-08-28T11:20:56.048Z,43.23
2017-08-28T11:21:56.086Z,43.71
2017-08-28T11:22:56.104Z,43.13
2017-08-28T11:23:58.611Z,44.30
2017-08-28T11:24:55.999Z,45.67
2017-08-28T15:45:08.716Z,18.75
2017-08-28T15:46:11.017Z,21.03
2017-08-28T15:47:11.100Z,20.54
2017-08-28T15:48:08.895Z,18.54
2017-08-28T15:49:09.105Z,19.44
2017-08-28T15:50:10.185Z,20.83
2017-08-28T15:51:08.796Z,17.85
2017-08-28T15:52:08.732Z,20.03
2017-08-28T15:53:08.707Z,18.65
2017-08-28T15:54:08.703Z,20.23
2017-08-28T15:55:08.697Z,19.73
2017-08-28T15:56:08.733Z,22.11
2017-08-28T15:57:08.707Z,21.31
2017-08-28T15:58:08.734Z,21.11
2017-08-28T15:59:08.746Z,22.59
2017-08-28T16:00:08.759Z,19.33
2017-08-28T16:01:08.678Z,22.00
2017-08-28T16:02:08.730Z,20.11
2017-08-28T16:03:08.723Z,22.99
2017-08-28T16:04:08.742Z,21.40
2017-08-28T16:05:08.850Z,22.69
2017-08-28T16:06:08.743Z,21.20
2017-08-28T16:07:09.133Z,23.68
2017-08-28T16:08:08.686Z,23.88
2017-08-28T16:09:08.675Z,23.08
2017-08-28T16:10:08.736Z,22.78
2017-08-28T16:11:08.735Z,23.97
2017-08-28T16:12:08.704Z,23.18
2017-08-28T16:13:08.650Z,23.07
2017-08-28T16:14:08.708Z,24.66
2017-08-28T16:15:08.694Z,23.47
2017-08-28T16:16:08.675Z,24.07
2017-08-28T16:17:08.719Z,24.66
2017-08-28T16:18:08.652Z,23.16
2017-08-28T16:19:08.684Z,23.36
2017-08-28T16:20:08.717Z,24.25
2017-08-28T16:21:08.681Z,22.56
2017-08-28T16:22:08.635Z,23.66
2017-08-28T16:23:08.647Z,24.35
2017-08-28T16:24:08.682Z,22.75
2017-08-28T16:25:08.627Z,23.84
2017-08-28T16:26:08.697Z,24.32
2017-08-28T16:27:08.625Z,23.73
2017-08-28T16:28:08.694Z,25.71
2017-08-28T16:29:08.636Z,23.83
2017-08-28T16:30:08.627Z,25.40
2017-08-28T16:31:08.585Z,25.90
2017-08-28T16:32:08.691Z,25.50
2017-08-28T16:33:08.636Z,23.82
2017-08-28T16:34:08.592Z,24.10
2017-08-28T16:35:08.707Z,25.70
2017-08-28T16:36:08.606Z,25.70
2017-08-28T16:37:08.586Z,26.48
2017-08-28T16:38:08.580Z,26.87
2017-08-28T16:39:08.577Z,26.57
2017-08-28T16:40:08.588Z,25.29
2017-08-28T16:41:08.577Z,23.11
2017-08-28T16:42:08.601Z,23.69
2017-08-28T16:43:08.547Z,24.77
2017-08-28T16:44:08.557Z,25.66
2017-08-28T16:45:08.598Z,27.03
2017-08-28T16:46:08.555Z,27.92
2017-08-28T16:47:08.580Z,26.83
2017-08-28T16:48:08.558Z,25.74
2017-08-28T16:49:08.555Z,27.82
2017-08-28T16:50:08.538Z,28.70
2017-08-28T16:51:08.527Z,27.62
2017-08-28T16:52:08.568Z,28.31
2017-08-28T16:53:08.564Z,25.84
2017-08-28T16:54:08.509Z,26.83
2017-08-28T16:55:08.538Z,27.62
2017-08-28T16:56:08.529Z,25.84
2017-08-28T16:57:08.501Z,27.72
2017-08-28T16:58:08.536Z,27.52
2017-08-28T16:59:08.570Z,27.70
2017-08-28T17:00:08.534Z,28.20
2017-08-28T17:01:08.487Z,27.22
2017-08-28T17:02:08.508Z,25.73
2017-08-28T17:03:08.501Z,27.70
2017-08-28T17:04:08.450Z,27.20
2017-08-28T17:05:08.527Z,29.27
2017-08-28T17:06:08.554Z,25.82
2017-08-28T17:07:08.503Z,26.71
2017-08-28T17:08:08.490Z,27.20
2017-08-28T17:09:08.469Z,28.09
2017-08-28T17:10:08.503Z,27.68
2017-08-28T17:11:08.860Z,26.89
2017-08-28T17:12:08.539Z,26.70
2017-08-28T17:13:08.448Z,26.79
2017-08-28T17:14:08.861Z,27.09
2017-08-28T17:15:08.461Z,27.47
2017-08-28T17:16:08.410Z,27.27
2017-08-28T17:17:08.464Z,27.57
2017-08-28T17:18:08.386Z,25.88
2017-08-28T17:19:08.430Z,27.75
2017-08-28T17:20:08.449Z,28.72
2017-08-28T17:21:08.376Z,28.82
2017-08-28T17:22:08.364Z,28.72
2017-08-28T17:23:08.411Z,27.53
2017-08-28T17:24:08.385Z,29.30
2017-08-28T17:25:08.429Z,29.89
2017-08-28T17:26:08.402Z,29.19
2017-08-28T17:27:08.385Z,29.77
2017-08-28T17:28:08.380Z,30.66
2017-08-28T17:29:08.328Z,30.45